Time;durP1;ratioP1;P1;durP2;ratioP2;P2;SDS_P1;SDS_P2;PMS_P1;PMS_P2;Temp;Humidity;BMP_temperature;BMP_pressure;BME280_temperature;BME280_humidity;BME280_pressure;Samples;Min_cycle;Max_cycle;Signal;HPM_P1;HPM_P2
2022/11/05 00:09:28;;;;;;;0.90;0.90;;;8.50;99.90;;;;;;5052876;28;20245;-89
2022/11/05 00:17:14;;;;;;;1.30;0.90;;;8.80;99.90;;;;;;5051981;28;20221;-89
2022/11/05 00:19:50;;;;;;;1.00;1.00;;;8.80;99.90;;;;;;5051678;28;20205;-89
2022/11/05 00:25:31;;;;;;;1.83;1.67;;;8.90;99.90;;;;;;5051997;28;20209;-89
2022/11/05 00:28:36;;;;;;;;;;;;;;;;;;;;;
2022/11/05 00:31:19;;;;;;;0.68;0.68;;;8.90;99.90;;;;;;5051773;28;20213;-90
2022/11/05 00:34:00;;;;;;;1.45;0.93;;;8.90;99.90;;;;;;5050993;28;20229;-90
2022/11/05 00:36:58;;;;;;;1.00;1.00;;;8.90;99.90;;;;;;5054928;28;20275;-92
2022/11/05 00:45:24;;;;;;;4.90;1.00;;;9.00;99.90;;;;;;5053842;28;20201;-92
2022/11/05 00:51:07;;;;;;;1.00;1.00;;;9.00;99.90;;;;;;5054276;28;20230;-88
2022/11/05 00:53:49;;;;;;;0.85;0.85;;;9.00;99.90;;;;;;5054918;28;20297;-89
2022/11/05 00:56:39;;;;;;;0.68;0.68;;;9.00;99.90;;;;;;5054032;28;20197;-89
2022/11/05 00:59:24;;;;;;;0.68;0.68;;;9.00;99.90;;;;;;5054131;28;20213;-89
2022/11/05 01:02:08;;;;;;;0.77;0.77;;;8.90;99.90;;;;;;5054629;28;20289;-88
2022/11/05 01:04:44;;;;;;;0.40;0.40;;;8.90;99.90;;;;;;5054110;28;20281;-89
2022/11/05 01:07:29;;;;;;;0.65;0.65;;;9.00;99.90;;;;;;5054363;28;20236;-89
2022/11/05 01:10:15;;;;;;;1.15;1.00;;;9.00;99.90;;;;;;5054246;28;20226;-89
2022/11/05 01:13:09;;;;;;;0.63;0.63;;;9.00;99.90;;;;;;5054311;28;20217;-89
2022/11/05 01:15:54;;;;;;;0.90;0.90;;;9.00;99.90;;;;;;5053907;28;20288;-89
2022/11/05 01:18:32;;;;;;;1.25;1.10;;;8.90;99.90;;;;;;5053740;28;20244;-89
2022/11/05 01:21:11;;;;;;;1.70;1.00;;;8.90;99.90;;;;;;5053873;28;20275;-89
2022/11/05 01:23:45;;;;;;;1.08;0.98;;;8.90;99.90;;;;;;5053974;28;20214;-89
2022/11/05 01:26:23;;;;;;;0.75;0.75;;;8.90;99.90;;;;;;5053137;28;20198;-89
2022/11/05 01:28:54;;;;;;;0.73;0.73;;;8.90;99.90;;;;;;5053168;28;20232;-89
2022/11/05 01:31:24;;;;;;;1.40;1.30;;;8.90;99.90;;;;;;5053645;28;20209;-88
2022/11/05 01:36:58;;;;;;;1.58;1.48;;;8.90;99.90;;;;;;5051891;28;20212;-88
2022/11/05 01:39:38;;;;;;;1.40;1.30;;;8.90;99.90;;;;;;5053685;28;20202;-88
2022/11/05 01:42:22;;;;;;;1.05;1.00;;;8.90;99.90;;;;;;5053593;28;20205;-89
2022/11/05 01:45:11;;;;;;;7.95;1.08;;;8.90;99.90;;;;;;5053622;28;20213;-89
2022/11/05 01:48:07;;;;;;;0.93;0.85;;;8.90;99.90;;;;;;5053166;28;20282;-88
2022/11/05 01:50:54;;;;;;;1.05;1.05;;;8.90;99.90;;;;;;5053410;28;20240;-89
2022/11/05 01:53:38;;;;;;;1.02;1.02;;;8.90;99.90;;;;;;5053581;28;20206;-91
2022/11/05 01:56:30;;;;;;;1.15;1.15;;;8.90;99.90;;;;;;5053682;28;20297;-90
2022/11/05 01:59:12;;;;;;;0.80;0.80;;;8.90;99.90;;;;;;5053044;28;20225;-91
2022/11/05 02:01:59;;;;;;;0.93;0.93;;;8.80;99.90;;;;;;5053643;28;20201;-90
2022/11/05 02:04:49;;;;;;;1.75;1.38;;;8.80;99.90;;;;;;5053553;28;20198;-91
2022/11/05 02:07:26;;;;;;;1.15;1.15;;;8.80;99.90;;;;;;5052529;28;20249;-90
2022/11/05 02:10:16;;;;;;;1.23;1.13;;;8.80;99.90;;;;;;5051637;28;20259;-90
2022/11/05 02:12:58;;;;;;;0.70;0.70;;;8.70;99.90;;;;;;5053562;28;20217;-91
2022/11/05 02:15:44;;;;;;;1.45;1.35;;;8.70;99.90;;;;;;5052691;28;20216;-90
2022/11/05 02:18:30;;;;;;;2.60;1.90;;;8.60;99.90;;;;;;5052749;28;20237;-91
2022/11/05 02:21:43;;;;;;;3.40;1.50;;;8.70;99.90;;;;;;5052956;28;20297;-91
2022/11/05 02:25:13;;;;;;;1.27;1.17;;;8.60;99.90;;;;;;4991053;28;20295;-90
2022/11/05 02:28:17;;;;;;;1.65;1.35;;;8.60;99.90;;;;;;5003379;28;20229;-89
2022/11/05 02:31:05;;;;;;;1.23;1.23;;;8.60;99.90;;;;;;5052611;28;20230;-90
2022/11/05 02:33:55;;;;;;;1.45;1.35;;;8.60;99.90;;;;;;5052870;28;20228;-90
2022/11/05 02:36:45;;;;;;;1.65;1.55;;;8.50;99.90;;;;;;5052944;28;20206;-90
2022/11/05 02:39:39;;;;;;;4.15;1.70;;;8.60;99.90;;;;;;5052423;28;20201;-87
2022/11/05 02:42:31;;;;;;;1.85;1.75;;;8.50;99.90;;;;;;5052840;28;20209;-90
2022/11/05 02:45:26;;;;;;;1.55;1.45;;;8.50;99.90;;;;;;5052749;28;20205;-88
2022/11/05 02:48:57;;;;;;;1.33;1.23;;;8.50;99.90;;;;;;5052171;28;20229;-88
2022/11/05 02:51:32;;;;;;;2.20;2.00;;;8.50;99.90;;;;;;5052658;28;20214;-90
2022/11/05 02:54:09;;;;;;;1.70;1.60;;;8.50;99.90;;;;;;5052789;28;20209;-90
2022/11/05 02:56:44;;;;;;;1.98;1.73;;;8.50;99.90;;;;;;5052216;28;20210;-90
2022/11/05 02:59:24;;;;;;;2.40;1.58;;;8.50;99.90;;;;;;5052469;28;20205;-90
2022/11/05 03:05:49;;;;;;;1.77;1.63;;;8.50;99.90;;;;;;5044245;28;20213;-89
2022/11/05 03:08:37;;;;;;;1.77;1.67;;;8.50;99.90;;;;;;5052209;28;20232;-89
2022/11/05 03:11:23;;;;;;;1.58;1.48;;;8.50;99.90;;;;;;5049928;28;20202;-92
2022/11/05 03:14:54;;;;;;;1.83;1.73;;;8.50;99.90;;;;;;5052525;28;20209;-90
2022/11/05 03:17:55;;;;;;;2.03;1.88;;;8.50;99.90;;;;;;5045492;28;20234;-90
2022/11/05 03:23:44;;;;;;;2.40;2.00;;;8.50;99.90;;;;;;5049634;28;20206;-92
2022/11/05 03:26:19;;;;;;;1.65;1.55;;;8.40;99.90;;;;;;5052166;28;20227;-92
2022/11/05 03:28:55;;;;;;;1.95;1.85;;;8.50;99.90;;;;;;5051957;28;20225;-91
2022/11/05 03:31:28;;;;;;;1.58;1.40;;;8.50;99.90;;;;;;5052280;28;20214;-90
2022/11/05 03:34:06;;;;;;;1.60;1.50;;;8.50;99.90;;;;;;5052409;28;20244;-90
2022/11/05 03:36:41;;;;;;;1.73;1.63;;;8.60;99.90;;;;;;5052232;28;20202;-92
2022/11/05 03:39:14;;;;;;;2.00;1.80;;;8.60;99.90;;;;;;5052294;28;20216;-92
2022/11/05 03:41:50;;;;;;;1.98;1.83;;;8.60;99.90;;;;;;5052079;28;20206;-91
2022/11/05 03:44:29;;;;;;;2.03;1.92;;;8.70;99.90;;;;;;5052044;28;20286;-92
2022/11/05 03:47:05;;;;;;;1.88;1.77;;;8.70;99.90;;;;;;5052057;28;20218;-92
2022/11/05 03:49:43;;;;;;;4.68;2.42;;;8.80;99.90;;;;;;5052117;28;20225;-91
2022/11/05 03:52:23;;;;;;;1.83;1.73;;;8.60;99.90;;;;;;5055979;28;20206;-91
2022/11/05 03:54:56;;;;;;;2.60;2.13;;;8.60;99.90;;;;;;5055381;28;20208;-91
2022/11/05 03:57:32;;;;;;;2.40;2.20;;;8.70;99.90;;;;;;5055015;28;20228;-91
2022/11/05 04:00:07;;;;;;;8.20;3.08;;;8.70;99.90;;;;;;5055833;28;20210;-90
2022/11/05 04:02:49;;;;;;;2.65;2.45;;;8.80;99.90;;;;;;5055730;28;20299;-90
2022/11/05 04:05:19;;;;;;;2.40;2.30;;;8.70;99.90;;;;;;5055400;28;20232;-88
2022/11/05 04:13:40;;;;;;;2.53;2.28;;;8.70;99.90;;;;;;5055219;28;20292;-88
2022/11/05 04:18:56;;;;;;;2.42;2.17;;;8.70;99.90;;;;;;5054898;28;20269;-88
2022/11/05 04:24:13;;;;;;;2.80;2.53;;;8.70;99.90;;;;;;5055255;28;20210;-88
2022/11/05 04:26:46;;;;;;;3.58;2.28;;;8.70;99.90;;;;;;5055165;28;20209;-91
2022/11/05 04:32:00;;;;;;;3.08;2.80;;;8.70;99.90;;;;;;5055178;28;20210;-88
2022/11/05 04:34:29;;;;;;;3.63;3.20;;;8.70;99.90;;;;;;5055121;28;20277;-88
2022/11/05 04:36:58;;;;;;;3.03;2.78;;;8.70;99.90;;;;;;5054903;28;20232;-88
2022/11/05 04:39:38;;;;;;;3.20;2.58;;;8.60;99.90;;;;;;5054846;28;20261;-91
2022/11/05 04:42:18;;;;;;;2.58;2.35;;;8.70;99.90;;;;;;5054678;28;20198;-91
2022/11/05 04:44:49;;;;;;;2.42;2.22;;;8.70;99.90;;;;;;5055134;28;20266;-89
2022/11/05 04:47:26;;;;;;;3.33;3.03;;;8.70;99.90;;;;;;5054378;28;20308;-90
2022/11/05 04:49:57;;;;;;;3.22;2.60;;;8.70;99.90;;;;;;5054660;28;20225;-91
2022/11/05 04:52:29;;;;;;;2.45;2.25;;;8.70;99.90;;;;;;5054910;28;20198;-91
2022/11/05 04:55:00;;;;;;;2.35;2.17;;;8.70;99.90;;;;;;5054624;28;20273;-88
2022/11/05 04:57:32;;;;;;;2.70;2.50;;;8.70;99.90;;;;;;5054061;28;20225;-89
2022/11/05 05:00:10;;;;;;;2.53;2.33;;;8.70;99.90;;;;;;5054355;28;20209;-89
2022/11/05 05:02:58;;;;;;;1.98;1.88;;;8.70;99.90;;;;;;5053754;28;20206;-89
2022/11/05 05:05:29;;;;;;;3.92;2.88;;;8.70;99.90;;;;;;5054844;28;20206;-89
2022/11/05 05:08:02;;;;;;;3.15;2.85;;;8.60;99.90;;;;;;5054469;28;20268;-89
2022/11/05 05:10:41;;;;;;;3.20;2.60;;;8.60;99.90;;;;;;5054444;28;20304;-89
2022/11/05 05:13:13;;;;;;;2.63;2.42;;;8.70;99.90;;;;;;5053978;28;20206;-89
2022/11/05 05:15:50;;;;;;;2.65;2.38;;;8.60;99.90;;;;;;5053959;28;20205;-88
2022/11/05 05:18:32;;;;;;;2.45;2.22;;;8.60;99.90;;;;;;5054467;28;20236;-89
2022/11/05 05:24:10;;;;;;;2.90;2.70;;;8.60;99.90;;;;;;5054033;28;20211;-91
2022/11/05 05:26:49;;;;;;;3.53;2.88;;;8.50;99.90;;;;;;5053646;28;20207;-88
2022/11/05 05:29:19;;;;;;;2.92;2.72;;;8.50;99.90;;;;;;5053842;28;20285;-88
2022/11/05 05:31:52;;;;;;;3.25;2.88;;;8.40;99.90;;;;;;5053998;28;20206;-88
2022/11/05 05:34:29;;;;;;;5.53;3.40;;;8.50;99.90;;;;;;5053754;28;20206;-88
2022/11/05 05:37:14;;;;;;;5.10;2.92;;;8.50;99.90;;;;;;5053684;28;20225;-90
2022/11/05 05:39:48;;;;;;;2.58;2.47;;;8.40;99.90;;;;;;5053539;28;20205;-90
2022/11/05 05:42:21;;;;;;;3.08;2.60;;;8.50;99.90;;;;;;5053519;28;20205;-89
2022/11/05 05:44:50;;;;;;;3.13;2.80;;;8.50;99.90;;;;;;5053895;28;20304;-88
2022/11/05 05:47:21;;;;;;;3.00;2.67;;;8.50;99.90;;;;;;5053470;28;20230;-88
2022/11/05 05:49:55;;;;;;;2.60;2.40;;;8.50;99.90;;;;;;5053545;28;20313;-88
2022/11/05 05:52:28;;;;;;;4.10;2.45;;;8.50;99.90;;;;;;5053468;28;20210;-88
2022/11/05 05:54:56;;;;;;;3.20;2.90;;;8.60;99.90;;;;;;5053211;28;20292;-88
2022/11/05 05:57:34;;;;;;;2.58;2.38;;;8.60;99.90;;;;;;5053169;28;20251;-88
2022/11/05 06:00:08;;;;;;;16.60;3.28;;;8.60;99.90;;;;;;5053514;28;20292;-91
2022/11/05 06:02:48;;;;;;;3.33;2.90;;;8.60;99.90;;;;;;5053168;28;20197;-90
2022/11/05 06:05:16;;;;;;;3.45;3.15;;;8.60;99.90;;;;;;5053024;28;20208;-91
2022/11/05 06:07:45;;;;;;;2.22;2.13;;;8.60;99.90;;;;;;5052832;28;20246;-90
2022/11/05 06:10:19;;;;;;;3.10;2.80;;;8.60;99.90;;;;;;5052910;28;20232;-88
2022/11/05 06:13:01;;;;;;;2.60;2.33;;;8.60;99.90;;;;;;5053291;28;20201;-88
2022/11/05 06:15:31;;;;;;;2.75;2.55;;;8.60;99.90;;;;;;5053200;28;20205;-88
2022/11/05 06:18:07;;;;;;;3.28;2.47;;;8.60;99.90;;;;;;5052645;28;20226;-88
2022/11/05 06:20:45;;;;;;;2.83;2.60;;;8.60;99.90;;;;;;5053128;28;20208;-89
2022/11/05 06:23:21;;;;;;;3.33;3.03;;;8.60;99.90;;;;;;5052902;28;20263;-89
2022/11/05 06:25:56;;;;;;;3.00;2.63;;;8.60;99.90;;;;;;5053147;28;20209;-88
2022/11/05 06:28:33;;;;;;;2.80;2.60;;;8.60;99.90;;;;;;5052871;28;20229;-88
2022/11/05 06:31:02;;;;;;;2.67;2.45;;;8.60;99.90;;;;;;5052568;28;20228;-88
2022/11/05 06:33:38;;;;;;;4.13;2.72;;;8.70;99.90;;;;;;5053132;28;20205;-88
2022/11/05 06:36:20;;;;;;;2.95;2.25;;;8.70;99.90;;;;;;5052833;28;20233;-91
2022/11/05 06:39:00;;;;;;;6.38;2.92;;;8.80;99.90;;;;;;5053362;28;20222;-90
2022/11/05 06:41:34;;;;;;;2.60;2.40;;;8.70;99.90;;;;;;5053082;28;20206;-90
2022/11/05 06:44:32;;;;;;;3.05;2.83;;;8.70;99.90;;;;;;5052865;28;20255;-91
2022/11/05 06:47:05;;;;;;;4.28;3.00;;;8.70;99.90;;;;;;5052222;28;20228;-91
2022/11/05 06:49:41;;;;;;;4.50;2.78;;;8.70;99.90;;;;;;5052365;28;20292;-90
2022/11/05 06:52:09;;;;;;;3.50;2.97;;;8.80;99.90;;;;;;5052908;28;20206;-92
2022/11/05 06:54:46;;;;;;;3.78;3.47;;;8.80;99.90;;;;;;5052770;28;20209;-90
2022/11/05 06:57:23;;;;;;;3.00;2.80;;;8.80;99.90;;;;;;5051877;28;20257;-90
2022/11/05 06:59:56;;;;;;;3.45;3.15;;;8.80;99.90;;;;;;5052912;28;20197;-89
2022/11/05 07:02:37;;;;;;;3.42;3.13;;;8.80;99.90;;;;;;5052526;28;20212;-88
2022/11/05 07:05:11;;;;;;;2.85;2.65;;;8.80;99.90;;;;;;5052771;28;20208;-89
2022/11/05 07:07:44;;;;;;;2.75;2.60;;;8.80;99.90;;;;;;5052406;28;20226;-88
2022/11/05 07:10:24;;;;;;;3.53;2.63;;;8.80;99.90;;;;;;5052387;28;20228;-89
2022/11/05 07:15:38;;;;;;;2.92;2.72;;;8.90;99.90;;;;;;5043379;28;20209;-89
2022/11/05 07:18:15;;;;;;;5.57;2.65;;;8.90;99.90;;;;;;5052180;28;20409;-89
2022/11/05 07:20:53;;;;;;;4.18;3.75;;;9.00;99.90;;;;;;5052744;28;20232;-88
2022/11/05 07:23:26;;;;;;;5.72;3.30;;;8.90;99.90;;;;;;5052122;28;20292;-87
2022/11/05 07:26:05;;;;;;;3.60;3.22;;;9.00;99.90;;;;;;5056211;28;20295;-87
2022/11/05 07:28:42;;;;;;;2.83;2.63;;;9.00;99.90;;;;;;5055587;28;20229;-87
2022/11/05 07:31:16;;;;;;;3.15;2.92;;;9.00;99.90;;;;;;5055982;28;20221;-88
2022/11/05 07:33:51;;;;;;;4.28;3.53;;;9.00;99.90;;;;;;5056262;28;20202;-87
2022/11/05 07:36:30;;;;;;;3.75;3.30;;;9.00;99.90;;;;;;5056313;28;20214;-88
2022/11/05 07:39:02;;;;;;;5.68;3.47;;;9.00;99.90;;;;;;5055466;28;20232;-88
2022/11/05 07:41:34;;;;;;;3.85;2.83;;;9.00;99.90;;;;;;5055944;28;20198;-88
2022/11/05 07:44:06;;;;;;;5.43;3.45;;;9.10;99.90;;;;;;5055905;28;20205;-88
2022/11/05 07:50:01;;;;;;;3.42;3.13;;;9.10;99.90;;;;;;5048076;28;20201;-87
2022/11/05 07:52:41;;;;;;;3.75;3.33;;;9.20;99.90;;;;;;5055761;28;20205;-88
2022/11/05 07:55:14;;;;;;;3.08;2.78;;;9.20;99.90;;;;;;5055719;28;20206;-88
2022/11/05 07:57:47;;;;;;;2.97;2.78;;;9.20;99.90;;;;;;5055118;28;20240;-88
2022/11/05 08:00:32;;;;;;;2.95;2.55;;;9.30;99.90;;;;;;5055692;28;20212;-87
2022/11/05 08:03:18;;;;;;;3.28;2.55;;;9.30;99.90;;;;;;5055976;28;20209;-87
2022/11/05 08:05:48;;;;;;;6.78;3.38;;;9.40;99.90;;;;;;5055061;28;20197;-88
2022/11/05 08:08:25;;;;;;;3.00;2.70;;;9.40;99.90;;;;;;5054911;28;20226;-88
2022/11/05 08:11:14;;;;;;;3.08;2.85;;;9.50;99.90;;;;;;5055360;28;20218;-87
2022/11/05 08:13:57;;;;;;;4.53;3.28;;;9.60;99.90;;;;;;5055098;28;20208;-88
2022/11/05 08:19:53;;;;;;;3.35;2.97;;;9.70;99.90;;;;;;5046210;28;20213;-87
2022/11/05 08:25:09;;;;;;;3.78;3.10;;;9.90;99.90;;;;;;5006361;28;20205;-88
2022/11/05 08:27:46;;;;;;;3.55;3.25;;;10.00;99.90;;;;;;5054728;28;20261;-88
2022/11/05 08:30:27;;;;;;;;;;;;;;;;;;;;;
2022/11/05 08:33:05;;;;;;;2.70;2.50;;;10.30;99.90;;;;;;5052532;28;20208;-87
2022/11/05 08:35:40;;;;;;;2.45;2.25;;;10.30;99.90;;;;;;5054735;28;20194;-90
2022/11/05 08:38:25;;;;;;;3.60;2.45;;;10.30;99.90;;;;;;5055130;28;20226;-88
2022/11/05 08:41:09;;;;;;;2.67;2.42;;;10.40;99.90;;;;;;5054854;28;20226;-87
2022/11/05 08:43:53;;;;;;;2.40;2.20;;;10.60;99.90;;;;;;5054720;28;20204;-88
2022/11/05 08:47:01;;;;;;;3.45;2.90;;;10.60;99.90;;;;;;5054575;28;20204;-88
2022/11/05 08:49:33;;;;;;;3.45;2.70;;;10.60;99.90;;;;;;5054915;28;20251;-88
2022/11/05 08:52:29;;;;;;;3.00;2.70;;;10.80;99.90;;;;;;5054332;28;20267;-87
2022/11/05 08:55:09;;;;;;;2.50;2.30;;;10.70;99.90;;;;;;5054242;28;20202;-87
2022/11/05 08:57:41;;;;;;;2.05;1.95;;;10.70;99.90;;;;;;5053972;28;20269;-87
2022/11/05 09:00:15;;;;;;;3.05;2.45;;;10.70;99.90;;;;;;5054558;28;20221;-87
2022/11/05 09:02:44;;;;;;;5.88;2.63;;;10.80;99.90;;;;;;5054796;28;20284;-89
2022/11/05 09:05:16;;;;;;;3.10;2.80;;;10.90;99.90;;;;;;5054718;28;20228;-89
2022/11/05 09:07:53;;;;;;;3.35;3.05;;;10.90;99.90;;;;;;5053775;28;20253;-90
2022/11/05 09:10:41;;;;;;;3.83;3.05;;;10.90;99.90;;;;;;5054255;28;20284;-90
2022/11/05 09:13:13;;;;;;;3.92;2.88;;;10.90;99.90;;;;;;5053988;28;20229;-90
2022/11/05 09:15:49;;;;;;;3.67;2.80;;;10.90;99.90;;;;;;5054275;28;20297;-90
2022/11/05 09:18:27;;;;;;;3.75;2.58;;;11.00;99.90;;;;;;5053627;28;20233;-90
2022/11/05 09:20:59;;;;;;;3.30;3.10;;;11.00;99.90;;;;;;5054159;28;20209;-90
2022/11/05 09:23:40;;;;;;;3.40;3.03;;;11.00;99.90;;;;;;5054150;28;20209;-90
2022/11/05 09:26:15;;;;;;;3.50;3.20;;;11.10;99.90;;;;;;5053879;28;20205;-90
2022/11/05 09:28:47;;;;;;;2.97;2.78;;;11.20;99.90;;;;;;5053693;28;20237;-90
2022/11/05 09:31:29;;;;;;;2.58;2.38;;;11.30;99.90;;;;;;5054050;28;20221;-90
2022/11/05 09:33:59;;;;;;;3.00;2.67;;;11.30;99.90;;;;;;5053942;28;20209;-89
2022/11/05 09:36:33;;;;;;;3.25;2.95;;;11.30;99.90;;;;;;5053815;28;20217;-90
2022/11/05 09:39:08;;;;;;;4.05;2.72;;;11.30;99.90;;;;;;5053550;28;20248;-90
2022/11/05 09:41:42;;;;;;;3.03;2.83;;;11.30;99.90;;;;;;5053554;28;20201;-91
2022/11/05 09:45:08;;;;;;;4.28;3.90;;;11.30;99.90;;;;;;5051953;28;20232;-88
2022/11/05 09:48:05;;;;;;;3.30;2.97;;;11.30;99.90;;;;;;5029666;28;20233;-89
2022/11/05 09:50:57;;;;;;;3.17;2.88;;;11.50;99.90;;;;;;5030788;28;20210;-88
2022/11/05 09:53:26;;;;;;;6.45;2.97;;;11.60;99.90;;;;;;5033718;28;20205;-89
2022/11/05 09:55:58;;;;;;;3.08;2.78;;;11.70;99.90;;;;;;5033388;28;20206;-88
2022/11/05 09:58:36;;;;;;;3.97;3.63;;;11.80;99.90;;;;;;5033179;28;20226;-88
2022/11/05 10:01:18;;;;;;;3.05;2.65;;;11.80;99.90;;;;;;5033250;28;20198;-88
2022/11/05 10:03:53;;;;;;;5.55;3.00;;;11.90;99.90;;;;;;5033160;28;20214;-89
2022/11/05 10:06:24;;;;;;;3.20;2.90;;;11.90;99.90;;;;;;5033296;28;20202;-88
2022/11/05 10:09:01;;;;;;;3.05;2.78;;;12.00;99.90;;;;;;5033158;28;20237;-88
2022/11/05 10:11:35;;;;;;;3.17;2.97;;;12.20;99.90;;;;;;5033057;28;20230;-88
2022/11/05 10:14:12;;;;;;;4.47;2.60;;;12.30;99.90;;;;;;5032928;28;20209;-88
2022/11/05 10:16:45;;;;;;;3.78;3.03;;;12.30;99.90;;;;;;5033224;28;20289;-89
2022/11/05 10:19:20;;;;;;;4.68;3.72;;;12.30;99.90;;;;;;5032947;28;20220;-88
2022/11/05 10:21:49;;;;;;;3.78;3.47;;;12.20;99.90;;;;;;5032996;28;20317;-88
2022/11/05 10:24:33;;;;;;;4.15;3.50;;;12.20;99.90;;;;;;5033248;28;20314;-88
2022/11/05 10:27:03;;;;;;;2.90;2.70;;;12.20;99.90;;;;;;5032469;28;20228;-88
2022/11/05 10:29:49;;;;;;;5.38;3.67;;;12.30;99.90;;;;;;5032902;28;20210;-89
2022/11/05 10:32:30;;;;;;;3.60;3.30;;;12.30;99.90;;;;;;5032886;28;20226;-89
2022/11/05 10:35:07;;;;;;;7.15;3.42;;;12.30;99.90;;;;;;5032589;28;20214;-89
2022/11/05 10:37:40;;;;;;;3.72;3.42;;;12.40;99.90;;;;;;5032476;28;20252;-88
2022/11/05 10:40:18;;;;;;;3.92;3.58;;;12.40;99.90;;;;;;5032872;28;20202;-88
2022/11/05 10:42:56;;;;;;;4.18;3.67;;;12.50;99.90;;;;;;5032742;28;20200;-88
2022/11/05 10:45:34;;;;;;;4.40;4.00;;;12.40;99.90;;;;;;5032911;28;20203;-88
2022/11/05 10:48:29;;;;;;;4.00;3.65;;;12.20;99.90;;;;;;5032269;28;20234;-89
2022/11/05 10:51:09;;;;;;;4.45;3.47;;;12.20;99.90;;;;;;5030844;28;20218;-89
2022/11/05 10:53:42;;;;;;;3.92;3.63;;;12.20;99.90;;;;;;5029716;28;20232;-90
2022/11/05 10:56:33;;;;;;;4.70;4.07;;;12.20;99.90;;;;;;5029959;28;20217;-89
2022/11/05 10:59:31;;;;;;;5.22;4.10;;;12.10;99.90;;;;;;5028983;28;20238;-88
2022/11/05 11:02:49;;;;;;;11.32;3.75;;;12.00;99.90;;;;;;5025493;28;20218;-88
2022/11/05 11:06:10;;;;;;;5.18;4.47;;;12.00;99.90;;;;;;4959436;28;20220;-88
2022/11/05 11:09:05;;;;;;;4.18;3.78;;;11.90;99.90;;;;;;4935221;28;20224;-89
2022/11/05 11:12:23;;;;;;;3.78;3.47;;;11.90;99.90;;;;;;4968758;28;20223;-89
2022/11/05 11:18:47;;;;;;;4.75;4.25;;;11.90;99.90;;;;;;4965123;28;20259;-88
2022/11/05 11:21:28;;;;;;;7.85;4.28;;;11.80;99.90;;;;;;4969166;28;20215;-88
2022/11/05 11:27:26;;;;;;;5.20;4.50;;;11.90;99.90;;;;;;4968855;28;20228;-92
2022/11/05 11:29:58;;;;;;;3.97;3.67;;;11.80;99.90;;;;;;4969408;28;20216;-92
2022/11/05 11:32:32;;;;;;;4.93;3.88;;;11.70;99.90;;;;;;4968819;28;20227;-92
2022/11/05 11:35:01;;;;;;;4.45;4.05;;;11.60;99.90;;;;;;4969045;28;20272;-92
2022/11/05 11:37:33;;;;;;;4.88;4.10;;;11.50;99.90;;;;;;4968976;28;20236;-92
2022/11/05 11:40:06;;;;;;;8.43;5.25;;;11.60;99.90;;;;;;4969102;28;20219;-92
2022/11/05 11:46:24;;;;;;;5.13;4.68;;;11.40;99.90;;;;;;5025950;28;20348;-90
2022/11/05 11:49:59;;;;;;;4.03;3.72;;;11.40;99.90;;;;;;5029828;28;20289;-89
2022/11/05 11:53:02;;;;;;;5.70;4.38;;;11.30;99.90;;;;;;5026610;28;20285;-89
2022/11/05 11:55:36;;;;;;;4.18;3.67;;;11.20;99.90;;;;;;5029546;28;20329;-89
2022/11/05 11:58:47;;;;;;;4.60;3.90;;;11.20;99.90;;;;;;5028374;28;20230;-89
2022/11/05 12:01:53;;;;;;;4.85;4.35;;;11.20;99.90;;;;;;5002647;28;20264;-90
2022/11/05 12:04:58;;;;;;;4.60;4.20;;;11.10;99.90;;;;;;5029386;28;20215;-90
2022/11/05 12:07:37;;;;;;;4.57;4.15;;;11.10;99.90;;;;;;5028999;28;20233;-93
2022/11/05 12:10:27;;;;;;;3.75;3.45;;;11.20;99.90;;;;;;5029167;28;20209;-85
2022/11/05 12:13:40;;;;;;;5.20;3.28;;;11.20;99.90;;;;;;5031334;28;20254;-88
2022/11/05 12:16:17;;;;;;;3.50;3.30;;;11.30;99.90;;;;;;5047228;28;20208;-90
2022/11/05 12:18:53;;;;;;;5.72;3.63;;;11.40;99.90;;;;;;5052641;28;20228;-88
2022/11/05 12:21:30;;;;;;;4.15;2.75;;;11.50;99.90;;;;;;5052718;28;20209;-90
2022/11/05 12:24:34;;;;;;;3.33;3.03;;;11.50;99.90;;;;;;5052469;28;20226;-90
2022/11/05 12:27:16;;;;;;;3.58;2.83;;;11.60;99.90;;;;;;5052306;28;20225;-90
2022/11/05 12:30:04;;;;;;;2.42;2.22;;;11.60;99.90;;;;;;5052310;28;20228;-90
2022/11/05 12:32:59;;;;;;;2.40;2.22;;;11.60;99.90;;;;;;5052450;28;20229;-90
2022/11/05 12:35:42;;;;;;;2.53;2.33;;;11.60;99.90;;;;;;5049873;28;20205;-90
2022/11/05 12:38:27;;;;;;;3.03;2.83;;;11.60;99.90;;;;;;5051497;28;20222;-90
2022/11/05 12:41:12;;;;;;;2.10;2.00;;;11.60;99.90;;;;;;5052533;28;20220;-90
2022/11/05 12:44:04;;;;;;;2.58;2.38;;;11.60;99.90;;;;;;5051972;28;20210;-92
2022/11/05 12:46:45;;;;;;;3.85;2.17;;;11.60;99.90;;;;;;5052113;28;20215;-91
2022/11/05 12:49:59;;;;;;;1.95;1.75;;;11.70;99.90;;;;;;5047179;28;20212;-92
2022/11/05 12:53:05;;;;;;;1.90;1.80;;;11.60;99.90;;;;;;5043438;28;20202;-92
2022/11/05 12:55:38;;;;;;;2.40;2.20;;;11.60;99.90;;;;;;5034856;28;20205;-92
2022/11/05 12:58:27;;;;;;;2.45;2.35;;;11.60;99.90;;;;;;5034997;28;20226;-92
2022/11/05 13:01:00;;;;;;;3.53;1.77;;;11.60;99.90;;;;;;5034238;28;20216;-92
2022/11/05 13:03:42;;;;;;;1.27;1.25;;;11.70;99.90;;;;;;5035000;28;20256;-92
2022/11/05 13:06:18;;;;;;;1.88;1.55;;;11.70;99.90;;;;;;5035108;28;20203;-92
2022/11/05 13:08:59;;;;;;;1.80;1.70;;;11.70;99.90;;;;;;5034711;28;20226;-92
2022/11/05 13:11:33;;;;;;;1.42;1.38;;;11.70;99.90;;;;;;5034386;28;20202;-91
2022/11/05 13:14:20;;;;;;;1.50;1.40;;;11.70;99.90;;;;;;5034500;28;20317;-93
2022/11/05 13:16:57;;;;;;;1.75;1.65;;;11.70;99.90;;;;;;5033561;28;20194;-91
2022/11/05 13:19:33;;;;;;;1.73;1.50;;;11.70;99.90;;;;;;5033406;28;20266;-91
2022/11/05 13:22:15;;;;;;;1.70;1.60;;;11.70;99.90;;;;;;5034604;28;20230;-91
2022/11/05 13:24:49;;;;;;;1.35;1.25;;;11.60;99.90;;;;;;5037947;28;20199;-91
2022/11/05 13:27:50;;;;;;;1.77;1.67;;;11.60;99.90;;;;;;5033573;28;20224;-92
2022/11/05 13:30:21;;;;;;;2.42;2.13;;;11.60;99.90;;;;;;5028108;28;20264;-91
2022/11/05 13:32:58;;;;;;;1.55;1.45;;;11.60;99.90;;;;;;5034139;28;20301;-92
2022/11/05 13:35:32;;;;;;;1.83;1.73;;;11.60;99.90;;;;;;5034175;28;20256;-92
2022/11/05 13:41:08;;;;;;;3.10;1.83;;;11.60;99.90;;;;;;5054343;28;20204;-92
2022/11/05 13:43:57;;;;;;;1.38;1.30;;;11.60;99.90;;;;;;5054641;28;20194;-92
2022/11/05 13:46:39;;;;;;;2.33;2.13;;;11.60;99.90;;;;;;5054373;28;20201;-92
2022/11/05 13:49:38;;;;;;;2.20;2.00;;;11.60;99.90;;;;;;5054309;28;20212;-91
2022/11/05 13:52:31;;;;;;;2.95;2.30;;;11.60;99.90;;;;;;5048378;28;20210;-92
2022/11/05 13:55:36;;;;;;;3.30;1.95;;;11.60;99.90;;;;;;5038243;28;20304;-91
2022/11/05 13:58:36;;;;;;;1.80;1.70;;;11.60;99.90;;;;;;5040739;28;20228;-92
2022/11/05 14:01:22;;;;;;;2.75;2.40;;;11.60;99.90;;;;;;5049407;28;20259;-91
2022/11/05 14:03:57;;;;;;;2.28;2.08;;;11.50;99.90;;;;;;5052861;28;20200;-91
2022/11/05 14:06:28;;;;;;;2.00;1.90;;;11.50;99.90;;;;;;5053939;28;20288;-91
2022/11/05 14:09:06;;;;;;;2.88;2.60;;;11.60;99.90;;;;;;5053420;28;20255;-90
2022/11/05 14:11:43;;;;;;;4.03;1.92;;;11.60;99.90;;;;;;5040611;28;20277;-90
2022/11/05 14:14:22;;;;;;;1.90;1.80;;;11.60;99.90;;;;;;5032389;28;20218;-91
2022/11/05 14:17:17;;;;;;;2.90;1.85;;;11.50;99.90;;;;;;5033065;28;20198;-91
2022/11/05 14:20:07;;;;;;;2.38;2.17;;;11.50;99.90;;;;;;5036880;28;20246;-91
2022/11/05 14:22:42;;;;;;;2.55;2.17;;;11.50;99.90;;;;;;5033601;28;20194;-93
2022/11/05 14:26:02;;;;;;;4.88;2.10;;;11.50;99.90;;;;;;5037938;28;20190;-90
2022/11/05 14:29:23;;;;;;;2.13;1.98;;;11.50;99.90;;;;;;5053172;28;20279;-94
2022/11/05 14:40:17;;;;;;;4.55;2.60;;;11.50;99.90;;;;;;5049761;28;20292;-92
2022/11/05 14:43:20;;;;;;;3.15;2.65;;;11.50;99.90;;;;;;5052599;28;20210;-94
2022/11/05 14:46:21;;;;;;;1.80;1.70;;;11.50;99.90;;;;;;5052789;28;20209;-93
2022/11/05 14:49:06;;;;;;;3.45;2.45;;;11.50;99.90;;;;;;5052280;28;20232;-93
2022/11/05 14:58:38;;;;;;;3.25;2.55;;;11.40;99.90;;;;;;4964493;28;20232;-94
2022/11/05 15:05:44;;;;;;;2.45;2.00;;;11.40;99.90;;;;;;4839526;29;20197;-93
2022/11/05 15:11:36;;;;;;;2.65;2.45;;;11.40;99.90;;;;;;4965265;28;20212;-92
2022/11/05 15:35:00;;;;;;;3.20;2.90;;;11.30;99.90;;;;;;5026163;28;20223;-88
2022/11/05 15:37:47;;;;;;;2.17;2.03;;;11.30;99.90;;;;;;5022009;28;20242;-94
2022/11/05 15:40:31;;;;;;;2.35;2.15;;;11.30;99.90;;;;;;5025995;28;20204;-94
2022/11/05 15:43:10;;;;;;;3.35;2.38;;;11.30;99.90;;;;;;5013240;28;20298;-95
2022/11/05 15:45:59;;;;;;;2.63;2.30;;;11.30;99.90;;;;;;5021091;28;20210;-95
2022/11/05 15:48:42;;;;;;;3.15;2.53;;;11.30;99.90;;;;;;5035944;28;20230;-95
2022/11/05 15:51:26;;;;;;;2.80;2.50;;;11.30;99.90;;;;;;5036302;28;20218;-89
2022/11/05 15:54:05;;;;;;;2.58;2.15;;;11.20;99.90;;;;;;5036586;28;20199;-94
2022/11/05 15:56:57;;;;;;;3.25;2.97;;;11.20;99.90;;;;;;5035492;28;20213;-94
2022/11/05 15:59:40;;;;;;;3.70;3.00;;;11.20;99.90;;;;;;5016716;28;20199;-94
2022/11/05 16:02:42;;;;;;;3.08;2.78;;;11.20;99.90;;;;;;5016518;28;20207;-94
2022/11/05 16:05:21;;;;;;;3.03;2.20;;;11.10;99.90;;;;;;5016763;28;20199;-94
2022/11/05 16:07:57;;;;;;;3.65;2.88;;;11.10;99.90;;;;;;5016251;28;20215;-94
2022/11/05 16:10:30;;;;;;;4.25;2.08;;;11.10;99.90;;;;;;5015824;28;20202;-94
2022/11/05 16:13:37;;;;;;;2.92;2.30;;;11.00;99.90;;;;;;5016117;28;20234;-94